createdAt,value
2024-01-25T00:00:00.464Z,58.24
2024-01-25T00:00:32.513Z,58.43
2024-01-25T00:01:04.922Z,57.87
2024-01-25T00:01:37.214Z,56.97
2024-01-25T00:02:09.507Z,56.96
2024-01-25T00:02:41.625Z,57.15
2024-01-25T00:03:13.644Z,57.14
2024-01-25T00:03:45.780Z,58.31
2024-01-25T00:04:17.937Z,58.30
2024-01-25T00:04:50.035Z,58.60
2024-01-25T00:05:22.521Z,57.60
2024-01-25T00:05:54.640Z,57.73
2024-01-25T00:06:26.791Z,56.69
2024-01-25T00:06:59.254Z,57.05
2024-01-25T00:07:31.502Z,57.26
2024-01-25T00:08:03.912Z,58.48
2024-01-25T00:08:36.182Z,58.25
2024-01-25T00:09:08.529Z,57.51
2024-01-25T00:09:40.589Z,58.25
2024-01-25T00:10:12.694Z,58.24
2024-01-25T00:10:44.893Z,57.44
2024-01-25T00:11:16.858Z,58.37
2024-01-25T00:11:48.864Z,58.66
2024-01-25T00:12:21.266Z,58.49
2024-01-25T00:12:54.703Z,59.01
2024-01-25T00:13:26.791Z,58.14
2024-01-25T00:13:58.969Z,58.30
2024-01-25T00:14:30.970Z,58.22
2024-01-25T00:15:03.531Z,58.25
2024-01-25T00:15:35.514Z,57.87
2024-01-25T00:16:07.797Z,57.58
2024-01-25T00:16:42.170Z,57.57
2024-01-25T00:17:14.208Z,59.21
2024-01-25T00:17:46.273Z,58.19
2024-01-25T00:18:18.281Z,57.79
2024-01-25T00:18:50.614Z,59.37
2024-01-25T00:19:23.648Z,58.45
2024-01-25T00:19:55.784Z,58.70
2024-01-25T00:20:28.058Z,58.28
2024-01-25T00:21:00.171Z,57.95
2024-01-25T00:21:32.239Z,57.89
2024-01-25T00:22:04.708Z,58.72
2024-01-25T00:22:36.742Z,58.97
2024-01-25T00:23:08.829Z,58.63
2024-01-25T00:23:40.824Z,57.96
2024-01-25T00:24:13.662Z,58.32
2024-01-25T00:24:45.865Z,58.24
2024-01-25T00:25:17.986Z,58.73
2024-01-25T00:25:50.062Z,58.67
2024-01-25T00:26:22.362Z,58.50
2024-01-25T00:26:54.381Z,59.28
2024-01-25T00:27:26.394Z,59.17
2024-01-25T00:28:00.017Z,58.75
2024-01-25T00:28:32.144Z,57.93
2024-01-25T00:29:04.838Z,58.88
2024-01-25T00:29:37.940Z,58.21
2024-01-25T00:30:11.016Z,58.96
2024-01-25T00:30:43.060Z,57.96
2024-01-25T00:31:15.187Z,57.78
2024-01-25T00:31:47.265Z,58.45
2024-01-25T00:32:19.280Z,58.32
2024-01-25T00:32:51.332Z,58.16
2024-01-25T00:33:23.868Z,58.45
2024-01-25T00:33:56.673Z,58.19
2024-01-25T00:34:29.482Z,57.70
2024-01-25T00:35:02.459Z,57.37
2024-01-25T00:35:35.391Z,57.57
2024-01-25T00:36:08.807Z,57.55
2024-01-25T00:36:41.509Z,57.76
2024-01-25T00:37:14.173Z,57.95
2024-01-25T00:37:46.745Z,58.53
2024-01-25T00:38:19.362Z,58.11
2024-01-25T00:38:52.024Z,57.74
2024-01-25T00:39:24.441Z,58.64
2024-01-25T00:39:57.057Z,58.74
2024-01-25T00:40:29.706Z,58.34
2024-01-25T00:41:02.530Z,58.29
2024-01-25T00:41:35.867Z,57.92
2024-01-25T00:42:08.896Z,57.70
2024-01-25T00:42:43.645Z,57.86
2024-01-25T00:43:18.221Z,58.53
2024-01-25T00:43:50.894Z,57.84
2024-01-25T00:44:23.612Z,59.31
2024-01-25T00:44:56.237Z,58.37
2024-01-25T00:45:28.769Z,58.60
2024-01-25T00:46:01.434Z,57.71
2024-01-25T00:46:33.961Z,58.90
2024-01-25T00:47:06.747Z,58.37
2024-01-25T00:47:39.458Z,58.96
2024-01-25T00:48:13.229Z,58.87
2024-01-25T00:48:46.018Z,57.89
2024-01-25T00:49:18.965Z,57.99
2024-01-25T00:49:51.912Z,57.46
2024-01-25T00:50:25.205Z,58.02
2024-01-25T00:50:58.270Z,57.27
2024-01-25T00:51:31.104Z,58.46
2024-01-25T00:52:04.538Z,58.64
2024-01-25T00:52:37.069Z,58.29
2024-01-25T00:53:10.160Z,58.10
2024-01-25T00:53:42.590Z,59.61
2024-01-25T00:54:15.295Z,59.16
2024-01-25T00:54:47.750Z,59.72
2024-01-25T00:55:20.592Z,59.83
2024-01-25T00:55:53.278Z,59.94
2024-01-25T00:56:25.893Z,59.74
2024-01-25T00:56:58.558Z,60.35
2024-01-25T00:57:31.211Z,60.12
2024-01-25T00:58:03.943Z,60.59
2024-01-25T00:58:38.032Z,60.64
2024-01-25T00:59:10.546Z,60.20
2024-01-25T00:59:43.086Z,58.68
2024-01-25T01:00:16.034Z,58.86
2024-01-25T01:00:48.674Z,59.65
2024-01-25T01:01:22.931Z,59.36
2024-01-25T01:01:59.402Z,59.79
2024-01-25T01:02:35.536Z,59.58
2024-01-25T01:03:08.189Z,59.09
2024-01-25T01:03:41.137Z,59.06
2024-01-25T01:04:13.938Z,59.82
2024-01-25T01:04:48.189Z,60.20
2024-01-25T01:05:21.710Z,60.37
2024-01-25T01:05:54.569Z,58.55
2024-01-25T01:06:30.442Z,58.23
2024-01-25T01:07:03.133Z,58.62
2024-01-25T01:07:35.858Z,59.15
2024-01-25T01:08:09.201Z,58.05
2024-01-25T01:08:44.080Z,58.18
2024-01-25T01:09:16.469Z,58.39
2024-01-25T01:09:48.550Z,56.97
2024-01-25T01:10:20.740Z,58.78
2024-01-25T01:10:52.840Z,59.36
2024-01-25T01:11:25.057Z,59.66
2024-01-25T01:11:57.121Z,59.87
2024-01-25T01:12:29.289Z,58.66
2024-01-25T01:13:01.423Z,56.84
2024-01-25T01:13:33.463Z,57.39
2024-01-25T01:14:06.858Z,56.85
2024-01-25T01:14:38.949Z,56.79
2024-01-25T01:15:11.025Z,56.77
2024-01-25T01:15:43.106Z,56.64
2024-01-25T01:16:15.306Z,58.10
2024-01-25T01:16:47.308Z,57.04
2024-01-25T01:17:19.371Z,57.92
2024-01-25T01:17:51.520Z,58.45
2024-01-25T01:18:23.671Z,57.76
2024-01-25T01:18:55.977Z,59.32
2024-01-25T01:19:28.177Z,58.11
2024-01-25T01:20:00.722Z,59.24
2024-01-25T01:20:33.453Z,58.17
2024-01-25T01:21:05.838Z,58.23
2024-01-25T01:21:37.967Z,58.59
2024-01-25T01:22:10.192Z,58.78
2024-01-25T01:22:42.255Z,59.33
2024-01-25T01:23:14.326Z,59.33
2024-01-25T01:23:46.327Z,58.76
2024-01-25T01:24:18.375Z,58.37
2024-01-25T01:24:50.400Z,58.32
2024-01-25T01:25:22.595Z,59.53
2024-01-25T01:25:54.769Z,58.62
2024-01-25T01:26:26.765Z,59.63
2024-01-25T01:26:58.805Z,58.06
2024-01-25T01:27:30.889Z,58.10
2024-01-25T01:28:02.982Z,58.25
2024-01-25T01:28:34.940Z,59.14
2024-01-25T01:29:08.449Z,58.63
2024-01-25T01:29:40.449Z,59.58
2024-01-25T01:30:12.985Z,58.63
2024-01-25T01:30:45.060Z,59.14
2024-01-25T01:31:17.637Z,58.52
2024-01-25T01:31:50.121Z,58.74
2024-01-25T01:32:23.271Z,58.66
2024-01-25T01:32:55.514Z,58.30
2024-01-25T01:33:27.856Z,59.02
2024-01-25T01:34:00.174Z,58.09
2024-01-25T01:34:32.774Z,58.65
2024-01-25T01:35:07.183Z,59.34
2024-01-25T01:35:39.414Z,58.35
2024-01-25T01:36:11.407Z,59.53
2024-01-25T01:36:43.500Z,58.98
2024-01-25T01:37:15.638Z,60.39
2024-01-25T01:37:48.023Z,59.28
2024-01-25T01:38:20.029Z,58.75
2024-01-25T01:38:52.083Z,59.03
2024-01-25T01:39:24.043Z,59.15
2024-01-25T01:39:56.198Z,59.39
2024-01-25T01:40:28.488Z,57.99
2024-01-25T01:41:00.535Z,58.33
2024-01-25T01:41:32.712Z,59.06
2024-01-25T01:42:04.909Z,59.92
2024-01-25T01:42:36.901Z,59.54
2024-01-25T01:43:18.626Z,59.16
2024-01-25T01:43:53.716Z,58.89
2024-01-25T01:44:27.069Z,59.54
2024-01-25T01:44:59.074Z,59.06
2024-01-25T01:45:31.229Z,58.16
2024-01-25T01:46:10.625Z,59.31
2024-01-25T01:46:43.149Z,59.18
2024-01-25T01:47:15.302Z,59.13
2024-01-25T01:47:47.529Z,59.28
2024-01-25T01:48:20.251Z,58.77
2024-01-25T01:48:52.834Z,57.89
2024-01-25T01:49:25.410Z,57.29
2024-01-25T01:49:58.146Z,57.99
2024-01-25T01:50:30.534Z,57.49
2024-01-25T01:51:03.056Z,57.16
2024-01-25T01:51:36.996Z,58.00
2024-01-25T01:52:09.393Z,57.96
2024-01-25T01:52:42.116Z,58.55
2024-01-25T01:53:14.227Z,57.25
2024-01-25T01:53:47.696Z,57.07
2024-01-25T01:54:20.265Z,58.43
2024-01-25T01:54:52.676Z,57.30
2024-01-25T01:55:24.889Z,58.17
2024-01-25T01:55:57.074Z,58.15
2024-01-25T01:56:29.894Z,57.30
2024-01-25T01:57:03.318Z,57.53
2024-01-25T01:57:36.150Z,57.61
2024-01-25T01:58:10.256Z,57.57
2024-01-25T01:58:43.073Z,58.33
2024-01-25T01:59:17.019Z,57.90
2024-01-25T01:59:50.742Z,58.22
2024-01-25T02:00:22.943Z,58.64
2024-01-25T02:00:56.517Z,58.70
2024-01-25T02:01:28.975Z,58.84
2024-01-25T02:02:01.354Z,58.84
2024-01-25T02:02:33.464Z,58.99
2024-01-25T02:03:06.068Z,59.60
2024-01-25T02:03:38.296Z,58.76
2024-01-25T02:04:10.491Z,59.29
2024-01-25T02:04:44.505Z,58.34
2024-01-25T02:05:17.153Z,59.06
2024-01-25T02:05:49.315Z,59.13
2024-01-25T02:06:22.261Z,59.50
2024-01-25T02:06:54.560Z,59.37
2024-01-25T02:07:26.846Z,58.22
2024-01-25T02:07:59.013Z,59.33
2024-01-25T02:08:31.451Z,59.08
2024-01-25T02:09:04.026Z,58.23
2024-01-25T02:09:36.233Z,58.56
2024-01-25T02:10:09.583Z,58.26
2024-01-25T02:10:41.722Z,58.22
2024-01-25T02:11:13.694Z,58.78
2024-01-25T02:11:45.729Z,58.65
2024-01-25T02:12:17.761Z,59.11
2024-01-25T02:12:49.872Z,58.29
2024-01-25T02:13:23.006Z,58.78
2024-01-25T02:13:55.372Z,58.46
2024-01-25T02:14:27.424Z,58.75
2024-01-25T02:15:01.547Z,57.90
2024-01-25T02:15:33.781Z,57.38
2024-01-25T02:16:06.523Z,57.83
2024-01-25T02:16:38.814Z,57.36
2024-01-25T02:17:10.911Z,57.90
2024-01-25T02:17:43.808Z,58.08
2024-01-25T02:18:16.040Z,59.20
2024-01-25T02:18:49.143Z,56.88
2024-01-25T02:19:21.599Z,57.46
2024-01-25T02:19:53.710Z,58.52
2024-01-25T02:20:27.098Z,58.42
2024-01-25T02:20:59.191Z,58.44
2024-01-25T02:21:31.368Z,58.41
2024-01-25T02:22:06.561Z,58.26
2024-01-25T02:22:40.186Z,58.69
2024-01-25T02:23:12.482Z,57.38
2024-01-25T02:23:44.526Z,57.79
2024-01-25T02:24:16.651Z,56.99
2024-01-25T02:24:48.906Z,56.81
2024-01-25T02:25:21.195Z,58.34
2024-01-25T02:25:53.529Z,58.21
2024-01-25T02:26:25.781Z,57.12
2024-01-25T02:26:58.722Z,57.73
2024-01-25T02:27:30.917Z,58.16
2024-01-25T02:28:03.102Z,57.49
2024-01-25T02:28:35.098Z,57.11
2024-01-25T02:29:07.248Z,57.31
2024-01-25T02:29:39.252Z,57.27
2024-01-25T02:30:11.731Z,56.74
2024-01-25T02:30:45.220Z,57.12
2024-01-25T02:31:17.365Z,56.58
2024-01-25T02:31:49.541Z,57.36
2024-01-25T02:32:21.759Z,56.35
2024-01-25T02:32:53.946Z,56.46
2024-01-25T02:33:26.099Z,56.77
2024-01-25T02:33:58.303Z,57.94
2024-01-25T02:34:30.423Z,56.92
2024-01-25T02:35:03.193Z,57.31
2024-01-25T02:35:35.496Z,56.82
2024-01-25T02:36:07.798Z,56.88
2024-01-25T02:36:39.901Z,57.13
2024-01-25T02:37:12.146Z,58.07
2024-01-25T02:37:45.836Z,57.08
2024-01-25T02:38:17.782Z,57.64
2024-01-25T02:38:49.823Z,57.18
2024-01-25T02:39:21.891Z,56.95
2024-01-25T02:39:55.216Z,57.41
2024-01-25T02:40:27.304Z,56.23
2024-01-25T02:41:00.176Z,57.41
2024-01-25T02:41:32.881Z,57.43
2024-01-25T02:42:05.321Z,58.03
2024-01-25T02:42:37.694Z,57.65
2024-01-25T02:43:09.826Z,58.62
2024-01-25T02:43:42.532Z,57.52
2024-01-25T02:44:14.744Z,57.53
2024-01-25T02:44:46.778Z,57.54
2024-01-25T02:45:19.029Z,57.07
2024-01-25T02:45:51.179Z,57.97
2024-01-25T02:46:24.649Z,58.24
2024-01-25T02:46:56.789Z,58.52
2024-01-25T02:47:29.132Z,58.43
2024-01-25T02:48:01.510Z,58.46
2024-01-25T02:48:33.831Z,57.91
2024-01-25T02:49:06.119Z,57.86
2024-01-25T02:49:38.922Z,58.22
2024-01-25T02:50:11.228Z,58.33
2024-01-25T02:50:43.319Z,58.06
2024-01-25T02:51:15.513Z,58.37
2024-01-25T02:51:47.716Z,58.04
2024-01-25T02:52:20.051Z,58.73
2024-01-25T02:52:53.685Z,58.85
2024-01-25T02:53:25.993Z,57.98
2024-01-25T02:53:57.971Z,58.08
2024-01-25T02:54:30.191Z,58.24
2024-01-25T02:55:02.259Z,58.13
2024-01-25T02:55:34.240Z,57.51
2024-01-25T02:56:07.326Z,57.42
2024-01-25T02:56:39.372Z,58.58
2024-01-25T02:57:11.610Z,58.25
2024-01-25T02:57:43.677Z,57.94
2024-01-25T02:58:16.055Z,58.20
2024-01-25T02:58:48.178Z,58.65
2024-01-25T02:59:20.166Z,58.80
2024-01-25T02:59:52.233Z,58.40
2024-01-25T03:00:24.290Z,58.91
2024-01-25T03:00:56.617Z,59.60
2024-01-25T03:01:28.750Z,59.91
2024-01-25T03:02:01.080Z,59.92
2024-01-25T03:02:33.247Z,59.98
2024-01-25T03:03:05.792Z,60.20
2024-01-25T03:03:38.306Z,60.08
2024-01-25T03:04:10.702Z,59.43
2024-01-25T03:04:43.023Z,58.75
2024-01-25T03:05:15.241Z,59.14
2024-01-25T03:05:47.529Z,59.68
2024-01-25T03:06:19.680Z,60.31
2024-01-25T03:06:51.915Z,59.81
2024-01-25T03:07:24.155Z,59.80
2024-01-25T03:07:57.649Z,59.73
2024-01-25T03:08:29.741Z,60.23
2024-01-25T03:09:01.824Z,60.11
2024-01-25T03:09:33.874Z,60.04
2024-01-25T03:10:07.017Z,61.18
2024-01-25T03:10:39.124Z,61.33
2024-01-25T03:11:11.287Z,60.66
2024-01-25T03:11:43.357Z,61.31
2024-01-25T03:12:15.413Z,61.33
2024-01-25T03:12:47.457Z,60.67
2024-01-25T03:13:22.735Z,61.52
2024-01-25T03:13:55.039Z,61.53
2024-01-25T03:14:27.130Z,61.32
2024-01-25T03:14:59.102Z,61.73
2024-01-25T03:15:31.323Z,61.58
2024-01-25T03:16:03.681Z,62.30
2024-01-25T03:16:35.820Z,61.49
2024-01-25T03:17:07.884Z,62.02
2024-01-25T03:17:40.017Z,61.55
2024-01-25T03:18:12.750Z,61.98
2024-01-25T03:18:44.951Z,61.92
2024-01-25T03:19:17.225Z,61.51
2024-01-25T03:19:49.760Z,61.72
2024-01-25T03:20:22.074Z,62.58
2024-01-25T03:20:54.145Z,62.08
2024-01-25T03:21:26.186Z,61.90
2024-01-25T03:21:58.240Z,62.65
2024-01-25T03:22:30.352Z,62.55
2024-01-25T03:23:04.342Z,62.90
2024-01-25T03:23:36.302Z,62.22
2024-01-25T03:24:08.344Z,62.44
2024-01-25T03:24:40.434Z,63.53
2024-01-25T03:25:13.086Z,62.28
2024-01-25T03:25:45.445Z,62.87
2024-01-25T03:26:17.513Z,63.11
2024-01-25T03:26:49.679Z,62.36
2024-01-25T03:27:21.752Z,62.07
2024-01-25T03:27:54.821Z,62.57
2024-01-25T03:28:26.944Z,63.34
2024-01-25T03:28:59.237Z,62.78
2024-01-25T03:29:31.273Z,62.46
2024-01-25T03:30:04.130Z,62.89
2024-01-25T03:30:36.285Z,62.56
2024-01-25T03:31:08.771Z,62.02
2024-01-25T03:31:41.078Z,62.45
2024-01-25T03:32:13.561Z,62.38
2024-01-25T03:32:47.868Z,62.40
2024-01-25T03:33:20.091Z,63.23
2024-01-25T03:33:52.430Z,62.20
2024-01-25T03:34:24.903Z,62.04
2024-01-25T03:34:57.458Z,62.07
2024-01-25T03:35:29.661Z,62.36
2024-01-25T03:36:03.544Z,62.80
2024-01-25T03:36:35.657Z,62.40
2024-01-25T03:37:08.732Z,62.71
2024-01-25T03:37:40.830Z,62.37
2024-01-25T03:38:14.361Z,62.98
2024-01-25T03:38:46.467Z,62.57
2024-01-25T03:39:18.894Z,63.79
2024-01-25T03:39:51.271Z,63.03
2024-01-25T03:40:24.298Z,62.89
2024-01-25T03:40:56.769Z,62.44
2024-01-25T03:41:28.755Z,62.24
2024-01-25T03:42:00.865Z,62.57
2024-01-25T03:42:33.676Z,63.55
2024-01-25T03:43:13.937Z,63.01
2024-01-25T03:43:52.550Z,63.97
2024-01-25T03:44:24.809Z,62.88
2024-01-25T03:44:56.905Z,63.84
2024-01-25T03:45:29.998Z,63.18
2024-01-25T03:46:02.139Z,63.47
2024-01-25T03:46:34.200Z,64.10
2024-01-25T03:47:06.690Z,63.50
2024-01-25T03:47:39.092Z,62.49
2024-01-25T03:48:11.152Z,62.36
2024-01-25T03:48:43.509Z,63.13
2024-01-25T03:49:15.947Z,63.30
2024-01-25T03:49:48.263Z,62.81
2024-01-25T03:50:21.186Z,63.07
2024-01-25T03:50:53.245Z,64.02
2024-01-25T03:51:25.362Z,63.64
2024-01-25T03:51:57.534Z,64.12
2024-01-25T03:52:29.815Z,62.65
2024-01-25T03:53:01.892Z,62.67
2024-01-25T03:53:35.363Z,63.45
2024-01-25T03:54:07.426Z,63.85
2024-01-25T03:54:39.462Z,63.49
2024-01-25T03:55:11.854Z,63.81
2024-01-25T03:55:43.972Z,63.45
2024-01-25T03:56:16.393Z,63.79
2024-01-25T03:56:48.470Z,63.97
2024-01-25T03:57:20.966Z,63.12
2024-01-25T03:57:53.140Z,63.49
2024-01-25T03:58:25.697Z,64.04
2024-01-25T03:58:57.910Z,63.33
2024-01-25T03:59:30.035Z,64.32
2024-01-25T04:00:02.148Z,64.01
2024-01-25T04:00:43.576Z,63.01
2024-01-25T04:01:15.873Z,63.73
2024-01-25T04:01:49.174Z,63.55
2024-01-25T04:02:21.671Z,63.38
2024-01-25T04:02:53.816Z,64.52
2024-01-25T04:03:29.613Z,63.69
2024-01-25T04:04:04.430Z,63.97
2024-01-25T04:04:36.634Z,63.39
2024-01-25T04:05:08.972Z,64.32
2024-01-25T04:05:41.257Z,63.93
2024-01-25T04:06:13.786Z,63.53
2024-01-25T04:06:46.338Z,64.03
2024-01-25T04:07:18.436Z,63.82
2024-01-25T04:07:50.563Z,64.15
2024-01-25T04:08:22.662Z,63.70
2024-01-25T04:08:56.848Z,63.72
2024-01-25T04:09:28.894Z,63.42
2024-01-25T04:10:01.653Z,63.09
2024-01-25T04:10:34.186Z,62.73
2024-01-25T04:11:06.218Z,62.62
2024-01-25T04:11:38.749Z,63.04
2024-01-25T04:12:10.816Z,62.26
2024-01-25T04:12:42.822Z,63.38
2024-01-25T04:13:15.044Z,61.62
2024-01-25T04:13:50.454Z,62.05
2024-01-25T04:14:22.730Z,62.94
2024-01-25T04:14:54.862Z,62.63
2024-01-25T04:15:26.954Z,61.90
2024-01-25T04:15:59.076Z,62.59
2024-01-25T04:16:31.918Z,62.40
2024-01-25T04:17:04.167Z,61.93
2024-01-25T04:17:36.394Z,62.08
2024-01-25T04:18:08.583Z,62.46
2024-01-25T04:18:40.910Z,62.27
2024-01-25T04:19:13.523Z,61.85
2024-01-25T04:19:45.841Z,62.83
2024-01-25T04:20:18.090Z,61.73
2024-01-25T04:20:50.577Z,61.84
2024-01-25T04:21:22.864Z,61.96
2024-01-25T04:21:57.768Z,61.39
2024-01-25T04:22:29.968Z,61.47
2024-01-25T04:23:08.131Z,61.33
2024-01-25T04:23:40.260Z,61.90
2024-01-25T04:24:13.667Z,62.00
2024-01-25T04:24:46.263Z,61.85
2024-01-25T04:25:20.243Z,62.43
2024-01-25T04:25:52.424Z,62.41
2024-01-25T04:26:24.906Z,60.74
2024-01-25T04:26:56.918Z,61.64
2024-01-25T04:27:29.360Z,61.62
2024-01-25T04:28:01.586Z,60.63
2024-01-25T04:28:33.778Z,61.33
2024-01-25T04:29:05.907Z,61.53
2024-01-25T04:29:44.206Z,60.54
2024-01-25T04:30:17.001Z,61.29
2024-01-25T04:30:49.120Z,60.40
2024-01-25T04:31:21.456Z,61.37
2024-01-25T04:31:53.718Z,60.21
2024-01-25T04:32:28.866Z,60.58
2024-01-25T04:33:01.533Z,60.85
2024-01-25T04:33:34.030Z,60.67
2024-01-25T04:34:06.438Z,60.54
2024-01-25T04:34:39.029Z,60.20
2024-01-25T04:35:11.351Z,60.05
2024-01-25T04:35:44.553Z,61.22
2024-01-25T04:36:17.184Z,60.86
2024-01-25T04:36:49.353Z,60.05
2024-01-25T04:37:21.805Z,60.28
2024-01-25T04:37:53.971Z,61.02
2024-01-25T04:38:26.493Z,61.02
2024-01-25T04:38:58.544Z,60.64
2024-01-25T04:39:32.037Z,61.03
2024-01-25T04:40:08.451Z,60.99
2024-01-25T04:40:40.577Z,61.60
2024-01-25T04:41:12.623Z,61.37
2024-01-25T04:41:44.669Z,61.57
2024-01-25T04:42:17.218Z,61.37
2024-01-25T04:42:49.784Z,61.23
2024-01-25T04:43:22.449Z,60.83
2024-01-25T04:43:54.726Z,61.74
2024-01-25T04:44:26.704Z,61.66
2024-01-25T04:44:59.111Z,61.11
2024-01-25T04:45:31.506Z,61.16
2024-01-25T04:46:04.461Z,61.92
2024-01-25T04:46:36.795Z,62.22
2024-01-25T04:47:10.374Z,61.99
2024-01-25T04:47:42.432Z,62.43
2024-01-25T04:48:15.050Z,62.50
2024-01-25T04:48:47.569Z,62.19
2024-01-25T04:49:20.037Z,61.98
2024-01-25T04:49:52.642Z,62.59
2024-01-25T04:50:25.365Z,62.15
2024-01-25T04:50:57.832Z,62.66
2024-01-25T04:51:30.169Z,62.49
2024-01-25T04:52:02.959Z,63.16
2024-01-25T04:52:35.203Z,63.59
2024-01-25T04:53:07.616Z,63.60
2024-01-25T04:53:39.904Z,63.51
2024-01-25T04:54:12.000Z,63.51
2024-01-25T04:54:45.837Z,63.89
2024-01-25T04:55:18.510Z,63.36
2024-01-25T04:55:51.283Z,64.31
2024-01-25T04:56:24.039Z,63.99
2024-01-25T04:56:56.543Z,64.10
2024-01-25T04:57:28.949Z,63.85
2024-01-25T04:58:01.209Z,64.45
2024-01-25T04:58:33.327Z,64.48
2024-01-25T04:59:05.553Z,64.95
2024-01-25T04:59:37.932Z,63.99
2024-01-25T05:00:11.106Z,64.70
2024-01-25T05:00:43.398Z,64.34
2024-01-25T05:01:15.558Z,64.36
2024-01-25T05:01:47.927Z,64.48
2024-01-25T05:02:20.077Z,64.54
2024-01-25T05:02:52.404Z,64.92
2024-01-25T05:03:24.412Z,65.08
2024-01-25T05:03:56.478Z,65.37
2024-01-25T05:04:30.035Z,65.13
2024-01-25T05:05:02.315Z,65.23
2024-01-25T05:05:34.423Z,65.82
2024-01-25T05:06:06.530Z,64.97
2024-01-25T05:06:38.683Z,64.45
2024-01-25T05:07:10.774Z,64.84
2024-01-25T05:07:43.305Z,64.77
2024-01-25T05:08:15.568Z,65.21
2024-01-25T05:08:47.827Z,64.92
2024-01-25T05:09:19.851Z,65.42
2024-01-25T05:09:53.382Z,65.14
2024-01-25T05:10:25.677Z,66.03
2024-01-25T05:10:57.802Z,65.80
2024-01-25T05:11:29.899Z,65.42
2024-01-25T05:12:01.886Z,65.96
2024-01-25T05:12:33.924Z,65.53
2024-01-25T05:13:05.965Z,66.05
2024-01-25T05:13:38.002Z,65.91
2024-01-25T05:14:09.987Z,66.00
2024-01-25T05:14:42.074Z,65.99
2024-01-25T05:15:14.105Z,65.79
2024-01-25T05:15:46.163Z,65.36
2024-01-25T05:16:18.260Z,64.82
2024-01-25T05:16:50.272Z,65.47
2024-01-25T05:17:26.248Z,65.45
2024-01-25T05:17:58.383Z,65.09
2024-01-25T05:18:30.607Z,65.40
2024-01-25T05:19:02.946Z,64.98
2024-01-25T05:19:35.233Z,65.35
2024-01-25T05:20:08.541Z,64.97
2024-01-25T05:20:40.811Z,65.17
2024-01-25T05:21:12.926Z,64.65
2024-01-25T05:21:45.030Z,64.74
2024-01-25T05:22:18.167Z,64.77
2024-01-25T05:22:50.256Z,64.64
2024-01-25T05:23:22.365Z,65.55
2024-01-25T05:23:54.523Z,65.29
2024-01-25T05:24:29.392Z,65.45
2024-01-25T05:25:02.989Z,64.90
2024-01-25T05:25:35.088Z,65.75
2024-01-25T05:26:08.590Z,65.52
2024-01-25T05:26:40.732Z,65.61
2024-01-25T05:27:12.893Z,65.17
2024-01-25T05:27:45.000Z,64.73
2024-01-25T05:28:17.268Z,65.39
2024-01-25T05:28:49.316Z,65.73
2024-01-25T05:29:21.637Z,64.78
2024-01-25T05:29:53.793Z,65.53
2024-01-25T05:30:26.650Z,65.25
2024-01-25T05:30:58.692Z,65.57
2024-01-25T05:31:30.926Z,65.51
2024-01-25T05:32:03.279Z,65.22
2024-01-25T05:32:35.566Z,65.22
2024-01-25T05:33:08.134Z,64.98
2024-01-25T05:33:40.541Z,65.82
2024-01-25T05:34:12.865Z,65.09
2024-01-25T05:34:45.173Z,64.73
2024-01-25T05:35:18.570Z,63.83
2024-01-25T05:35:51.510Z,63.70
2024-01-25T05:36:24.025Z,64.73
2024-01-25T05:36:56.241Z,64.28
2024-01-25T05:37:28.437Z,64.84
2024-01-25T05:38:00.497Z,64.56
2024-01-25T05:38:32.629Z,65.12
2024-01-25T05:39:04.763Z,64.84
2024-01-25T05:39:36.852Z,65.10
2024-01-25T05:40:11.371Z,64.88
2024-01-25T05:40:43.440Z,64.37
2024-01-25T05:41:15.573Z,64.74
2024-01-25T05:41:47.746Z,64.74
2024-01-25T05:42:19.778Z,65.62
2024-01-25T05:42:51.923Z,65.36
2024-01-25T05:43:24.239Z,65.53
2024-01-25T05:43:56.271Z,65.13
2024-01-25T05:44:28.420Z,65.73
2024-01-25T05:45:00.540Z,65.14
2024-01-25T05:45:32.733Z,65.59
2024-01-25T05:46:05.542Z,65.52
2024-01-25T05:46:37.768Z,66.00
2024-01-25T05:47:09.819Z,65.74
2024-01-25T05:47:42.043Z,66.45
2024-01-25T05:48:14.162Z,66.42
2024-01-25T05:48:46.329Z,65.52
2024-01-25T05:49:18.643Z,66.10
2024-01-25T05:49:50.866Z,65.48
2024-01-25T05:50:23.320Z,65.84
2024-01-25T05:50:55.423Z,65.44
2024-01-25T05:51:27.403Z,65.24
2024-01-25T05:51:59.514Z,65.40
2024-01-25T05:52:32.249Z,65.80
2024-01-25T05:53:04.254Z,67.02
2024-01-25T05:53:36.358Z,65.84
2024-01-25T05:54:08.439Z,65.90
2024-01-25T05:54:40.522Z,65.96
2024-01-25T05:55:14.034Z,66.11
2024-01-25T05:55:46.095Z,66.11
2024-01-25T05:56:18.173Z,65.91
2024-01-25T05:56:50.536Z,66.03
2024-01-25T05:57:23.637Z,66.79
2024-01-25T05:57:56.107Z,66.78
2024-01-25T05:58:28.385Z,66.39
2024-01-25T05:59:00.480Z,66.82
2024-01-25T05:59:32.634Z,66.78
2024-01-25T06:00:05.591Z,66.52
2024-01-25T06:00:37.730Z,67.15
2024-01-25T06:01:10.157Z,67.33
2024-01-25T06:01:42.619Z,66.98
2024-01-25T06:02:15.365Z,66.73
2024-01-25T06:02:47.409Z,66.70
2024-01-25T06:03:19.574Z,67.38
2024-01-25T06:03:51.840Z,67.09
2024-01-25T06:04:24.218Z,66.89
2024-01-25T06:04:56.630Z,67.71
2024-01-25T06:05:29.018Z,67.78
2024-01-25T06:06:01.427Z,67.34
2024-01-25T06:06:33.677Z,68.06
2024-01-25T06:07:06.075Z,67.50
2024-01-25T06:07:38.557Z,67.52
2024-01-25T06:08:10.909Z,67.85
2024-01-25T06:08:47.314Z,68.03
2024-01-25T06:09:24.552Z,68.39
2024-01-25T06:09:57.044Z,68.06
2024-01-25T06:10:30.476Z,67.92
2024-01-25T06:11:02.616Z,68.05
2024-01-25T06:11:34.632Z,68.59
2024-01-25T06:12:07.056Z,68.42
2024-01-25T06:12:39.299Z,68.23
2024-01-25T06:13:11.591Z,68.08
2024-01-25T06:13:47.989Z,68.36
2024-01-25T06:14:20.106Z,68.38
2024-01-25T06:14:52.147Z,68.18
2024-01-25T06:15:24.770Z,68.46
2024-01-25T06:15:56.837Z,68.20
2024-01-25T06:16:28.970Z,68.85
2024-01-25T06:17:01.092Z,68.70
2024-01-25T06:17:33.320Z,68.14
2024-01-25T06:18:05.984Z,68.10
2024-01-25T06:18:38.140Z,69.10
2024-01-25T06:19:11.231Z,69.11
2024-01-25T06:19:43.544Z,68.77
2024-01-25T06:20:16.290Z,68.77
2024-01-25T06:20:48.572Z,69.43
2024-01-25T06:21:20.561Z,69.56
2024-01-25T06:21:53.145Z,69.62
2024-01-25T06:22:25.299Z,69.34
2024-01-25T06:22:57.481Z,69.37
2024-01-25T06:23:29.567Z,69.15
2024-01-25T06:24:02.164Z,69.15
2024-01-25T06:24:34.236Z,68.95
2024-01-25T06:25:08.945Z,68.73
2024-01-25T06:25:42.840Z,68.74
2024-01-25T06:26:14.869Z,69.05
2024-01-25T06:26:46.909Z,69.29
2024-01-25T06:27:18.951Z,69.10
2024-01-25T06:27:50.993Z,69.23
2024-01-25T06:28:23.229Z,69.10
2024-01-25T06:28:55.451Z,69.11
2024-01-25T06:29:29.365Z,68.64
2024-01-25T06:30:01.642Z,68.46
2024-01-25T06:30:33.736Z,68.62
2024-01-25T06:31:05.783Z,69.11
2024-01-25T06:31:43.087Z,69.05
2024-01-25T06:32:22.744Z,68.47
2024-01-25T06:32:58.964Z,69.24
2024-01-25T06:33:31.146Z,69.26
2024-01-25T06:34:03.368Z,68.62
2024-01-25T06:34:35.569Z,69.13
2024-01-25T06:35:08.991Z,68.52
2024-01-25T06:35:41.299Z,68.73
2024-01-25T06:36:13.489Z,68.99
2024-01-25T06:36:48.085Z,68.31
2024-01-25T06:37:20.335Z,68.93
2024-01-25T06:37:52.451Z,69.08
2024-01-25T06:38:27.439Z,68.67
2024-01-25T06:38:59.638Z,69.30
2024-01-25T06:39:31.729Z,69.16
2024-01-25T06:40:04.441Z,69.72
2024-01-25T06:40:36.593Z,69.10
2024-01-25T06:41:10.044Z,68.44
2024-01-25T06:41:42.018Z,67.92
2024-01-25T06:42:14.056Z,68.46
2024-01-25T06:42:46.271Z,68.53
2024-01-25T06:43:18.444Z,68.66
2024-01-25T06:43:51.270Z,68.83
2024-01-25T06:44:23.364Z,69.13
2024-01-25T06:44:55.433Z,68.68
2024-01-25T06:45:27.819Z,68.59
2024-01-25T06:45:59.854Z,68.71
2024-01-25T06:46:31.964Z,68.46
2024-01-25T06:47:04.345Z,68.36
2024-01-25T06:47:36.368Z,69.43
2024-01-25T06:48:09.385Z,69.24
2024-01-25T06:48:41.692Z,68.63
2024-01-25T06:49:14.129Z,67.85
2024-01-25T06:49:46.449Z,68.77
2024-01-25T06:50:21.893Z,69.09
2024-01-25T06:50:54.058Z,69.13
2024-01-25T06:51:26.050Z,68.58
2024-01-25T06:51:58.094Z,68.13
2024-01-25T06:52:30.734Z,68.54
2024-01-25T06:53:03.047Z,68.25
2024-01-25T06:53:35.166Z,67.71
2024-01-25T06:54:07.220Z,67.54
2024-01-25T06:54:39.307Z,67.28
2024-01-25T06:55:11.863Z,68.17
2024-01-25T06:55:43.995Z,67.48
2024-01-25T06:56:17.382Z,67.48
2024-01-25T06:56:50.243Z,67.79
2024-01-25T06:57:24.123Z,67.41
2024-01-25T06:57:56.244Z,67.58
2024-01-25T06:58:28.476Z,67.32
2024-01-25T06:59:00.769Z,67.73
2024-01-25T06:59:33.098Z,67.77